Baltica — 9HA2607 — position and weather

sailwx.info

Track history (hours):
 
Tides and Currents Weather Stations Pressure Air Temp Water Temp Dewpoint Dewpoint Depression Visibility Wind Speed Wind Dir Waves Ship Positions

Baltica

Last reported at 2014-Oct-21 14:31 UTC. Time now 2014-Oct-21 15:20 UTC.
Position N 60°13' E 025°12'.

Length 157 m; draft 6.8 m.

Type: Ship (hazmat cat A). MMSI: 215013000.

Date/timePositionNaut miles runAvg speedWind from/ knotsBaromVisibWave heightAir tempDewpointWater temp
2014-Oct-21 14:31N 60°13' E 025°12'0 0.0
2014-Oct-21 13:31N 60°13' E 025°12'0 0.0
2014-Oct-21 12:31N 60°13' E 025°12'0 0.0
2014-Oct-21 11:31N 60°13' E 025°12'0 0.0
2014-Oct-21 10:31N 60°13' E 025°12'0 0.0
2014-Oct-21 09:31N 60°13' E 025°12'0 0.0
2014-Oct-21 08:31N 60°13' E 025°12'0 0.0
2014-Oct-21 07:31N 60°13' E 025°12'0 0.0
2014-Oct-21 06:31N 60°13' E 025°12'0 0.0
2014-Oct-21 05:31N 60°13' E 025°12'0 0.0
2014-Oct-21 04:31N 60°13' E 025°12'0 0.0
2014-Oct-21 03:31N 60°13' E 025°12'0 0.0
2014-Oct-21 02:31N 60°13' E 025°12'0 0.0
2014-Oct-21 01:31N 60°13' E 025°12'0 0.0
2014-Oct-21 00:31N 60°13' E 025°12'0 0.0
2014-Oct-20 23:31N 60°13' E 025°12'0 0.0
2014-Oct-20 22:31N 60°13' E 025°12'0 0.0
2014-Oct-20 21:31N 60°13' E 025°12'0 0.0
2014-Oct-20 20:31N 60°13' E 025°12'0 0.0
2014-Oct-20 19:31N 60°13' E 025°12'0 0.0
2014-Oct-20 18:31N 60°13' E 025°12'0 0.0
2014-Oct-20 17:31N 60°13' E 025°12'0 0.0
2014-Oct-20 16:28N 60°13' E 025°12'0 0.0
2014-Oct-20 15:31N 60°13' E 025°12'0 0.0
2014-Oct-20 14:31N 60°13' E 025°12'0 0.0
2014-Oct-20 13:31N 60°13' E 025°12'0 0.0
2014-Oct-20 12:31N 60°13' E 025°12'0 0.0
2014-Oct-20 11:31N 60°13' E 025°12'0 0.0
2014-Oct-20 10:31N 60°13' E 025°12'0 0.0
2014-Oct-20 09:31N 60°13' E 025°12'0 0.0
2014-Oct-20 08:31N 60°13' E 025°12'0 0.0
2014-Oct-20 07:31N 60°13' E 025°12'0 0.0
2014-Oct-20 06:34N 60°13' E 025°12'0 0.2
2014-Oct-20 05:33N 60°13' E 025°12'2713.6
2014-Oct-20 03:33N 59°49' E 024°45'3316.2
2014-Oct-20 01:32N 59°37' E 023°45'27516.1
2014-Oct-19 08:30N 55°38' E 019°32'1717.2
2014-Oct-19 07:32N 55°22' E 019°23'1717.2
2014-Oct-19 06:34N 55°06' E 019°14'1717.2
2014-Oct-19 05:34N 54°50' E 019°04'1817.6
2014-Oct-19 04:33N 54°34' E 018°51'1211.6
2014-Oct-19 03:33N 54°32' E 018°31'0 0.0
2014-Oct-19 02:30N 54°32' E 018°31'0 0.0
2014-Oct-19 01:33N 54°32' E 018°31'0 0.0
2014-Oct-19 00:33N 54°32' E 018°31'0 0.0
2014-Oct-18 23:33N 54°32' E 018°31'0 0.0
2014-Oct-18 22:33N 54°32' E 018°31'0 0.0
2014-Oct-18 21:33N 54°32' E 018°31'0 0.0
2014-Oct-18 20:33N 54°32' E 018°31'6 6.3
2014-Oct-18 19:33N 54°32' E 018°42'1514.8
2014-Oct-18 18:33N 54°44' E 018°58'1616.5
2014-Oct-18 17:33N 54°59' E 019°07'1716.5
2014-Oct-18 16:33N 55°15' E 019°16'28916.1
2014-Oct-17 22:34N 59°35' E 023°12'1716.9
2014-Oct-17 21:33N 59°40' E 023°44'2017.2
2014-Oct-17 20:25N 59°47' E 024°21'3216.6
2014-Oct-17 18:29N 60°06' E 025°11'7 6.3
2014-Oct-17 17:26N 60°13' E 025°12'0 0.0
2014-Oct-17 16:32N 60°13' E 025°12'0 0.0
2014-Oct-17 15:32N 60°13' E 025°12'0 0.0
2014-Oct-17 14:26N 60°13' E 025°12'0 0.0
2014-Oct-17 13:32N 60°13' E 025°12'0 0.0
2014-Oct-17 12:14N 60°13' E 025°12'0 0.0
2014-Oct-17 08:32N 60°13' E 025°12'0 0.0
2014-Oct-17 07:20N 60°13' E 025°12'0 0.0
2014-Oct-17 06:32N 60°13' E 025°12'4 4.3
2014-Oct-17 05:33N 60°09' E 025°12'4915.4
2014-Oct-17 02:24N 59°39' E 023°56'1416.7
2014-Oct-17 01:34N 59°34' E 023°30'29516.1
2014-Oct-16 07:14N 55°12' E 019°17'1117.0
2014-Oct-16 06:34N 55°01' E 019°10'1717.1
2014-Oct-16 05:34N 54°45' E 019°01'1616.0
2014-Oct-16 04:34N 54°32' E 018°46'8 8.3
2014-Oct-16 03:33N 54°32' E 018°31'0 0.0
2014-Oct-16 02:33N 54°32' E 018°31'0 0.0
2014-Oct-16 01:33N 54°32' E 018°31'0 0.0
2014-Oct-16 00:30N 54°32' E 018°31'0 0.0
2014-Oct-15 23:33N 54°32' E 018°31'0 0.0
2014-Oct-15 22:33N 54°32' E 018°31'0 0.0
2014-Oct-15 21:33N 54°32' E 018°31'0 0.0
2014-Oct-15 20:33N 54°32' E 018°31'6 6.3
2014-Oct-15 19:33N 54°32' E 018°42'1515.0
2014-Oct-15 18:33N 54°44' E 018°58'1716.8
2014-Oct-15 17:33N 55°00' E 019°07'30716.2
2014-Oct-14 22:32N 59°36' E 023°17'1816.9
2014-Oct-14 21:30N 59°42' E 023°50'1717.2
2014-Oct-14 20:31N 59°47' E 024°22'60 6.0
2014-Oct-14 10:32N 60°00' E 026°19'2016.9
2014-Oct-14 09:21N 59°60' E 026°59'2 0.1
2014-Oct-13 15:16N 59°58' E 027°00'1217.0
2014-Oct-13 14:33N 59°59' E 026°36'60 5.5
2014-Oct-13 03:33N 59°46' E 024°39'2116.7
2014-Oct-13 02:18N 59°39' E 023°59'1516.7
2014-Oct-13 01:25N 59°35' E 023°32'29516.5
2014-Oct-12 07:33N 55°13' E 019°18'1717.4
2014-Oct-12 06:33N 54°57' E 019°08'1817.7
2014-Oct-12 05:33N 54°40' E 018°58'1514.8
2014-Oct-12 04:34N 54°32' E 018°36'3 2.7
2014-Oct-12 03:31N 54°32' E 018°31'0 0.0
2014-Oct-12 02:31N 54°32' E 018°31'0 0.0
2014-Oct-12 01:31N 54°32' E 018°31'0 0.0
2014-Oct-12 00:31N 54°32' E 018°31'0 0.0
2014-Oct-11 23:31N 54°32' E 018°31'0 0.0
2014-Oct-11 22:31N 54°32' E 018°31'0 0.0
2014-Oct-11 21:31N 54°32' E 018°31'0 0.0
2014-Oct-11 20:33N 54°32' E 018°31'6 6.4
2014-Oct-11 19:33N 54°32' E 018°42'1514.6
2014-Oct-11 18:33N 54°44' E 018°58'1615.7
2014-Oct-11 17:33N 54°59' E 019°07'1615.8
2014-Oct-11 16:33N 55°14' E 019°15'  
Track history (hours):
 
Tides and Currents Weather Stations Pressure Air Temp Water Temp Dewpoint Dewpoint Depression Visibility Wind Speed Wind Dir Waves Ship Positions

Baltica

Last reported at 2014-Oct-21 14:31 UTC. Time now 2014-Oct-21 15:20 UTC.
Position N 60°13' E 025°12'.

Length 157 m; draft 6.8 m.

Type: Ship (hazmat cat A). MMSI: 215013000.

Date/timePositionNaut miles runAvg speedWind from/ knotsBaromVisibWave heightAir tempDewpointWater temp
2014-Oct-21 14:31N 60°13' E 025°12'0 0.0
2014-Oct-21 13:31N 60°13' E 025°12'0 0.0
2014-Oct-21 12:31N 60°13' E 025°12'0 0.0
2014-Oct-21 11:31N 60°13' E 025°12'0 0.0
2014-Oct-21 10:31N 60°13' E 025°12'0 0.0
2014-Oct-21 09:31N 60°13' E 025°12'0 0.0
2014-Oct-21 08:31N 60°13' E 025°12'0 0.0
2014-Oct-21 07:31N 60°13' E 025°12'0 0.0
2014-Oct-21 06:31N 60°13' E 025°12'0 0.0
2014-Oct-21 05:31N 60°13' E 025°12'0 0.0
2014-Oct-21 04:31N 60°13' E 025°12'0 0.0
2014-Oct-21 03:31N 60°13' E 025°12'0 0.0
2014-Oct-21 02:31N 60°13' E 025°12'0 0.0
2014-Oct-21 01:31N 60°13' E 025°12'0 0.0
2014-Oct-21 00:31N 60°13' E 025°12'0 0.0
2014-Oct-20 23:31N 60°13' E 025°12'0 0.0
2014-Oct-20 22:31N 60°13' E 025°12'0 0.0
2014-Oct-20 21:31N 60°13' E 025°12'0 0.0
2014-Oct-20 20:31N 60°13' E 025°12'0 0.0
2014-Oct-20 19:31N 60°13' E 025°12'0 0.0
2014-Oct-20 18:31N 60°13' E 025°12'0 0.0
2014-Oct-20 17:31N 60°13' E 025°12'0 0.0
2014-Oct-20 16:28N 60°13' E 025°12'0 0.0
2014-Oct-20 15:31N 60°13' E 025°12'0 0.0
2014-Oct-20 14:31N 60°13' E 025°12'0 0.0
2014-Oct-20 13:31N 60°13' E 025°12'0 0.0
2014-Oct-20 12:31N 60°13' E 025°12'0 0.0
2014-Oct-20 11:31N 60°13' E 025°12'0 0.0
2014-Oct-20 10:31N 60°13' E 025°12'0 0.0
2014-Oct-20 09:31N 60°13' E 025°12'0 0.0
2014-Oct-20 08:31N 60°13' E 025°12'0 0.0
2014-Oct-20 07:31N 60°13' E 025°12'0 0.0
2014-Oct-20 06:34N 60°13' E 025°12'0 0.2
2014-Oct-20 05:33N 60°13' E 025°12'2713.6
2014-Oct-20 03:33N 59°49' E 024°45'3316.2
2014-Oct-20 01:32N 59°37' E 023°45'27516.1
2014-Oct-19 08:30N 55°38' E 019°32'1717.2
2014-Oct-19 07:32N 55°22' E 019°23'1717.2
2014-Oct-19 06:34N 55°06' E 019°14'1717.2
2014-Oct-19 05:34N 54°50' E 019°04'1817.6
2014-Oct-19 04:33N 54°34' E 018°51'1211.6
2014-Oct-19 03:33N 54°32' E 018°31'0 0.0
2014-Oct-19 02:30N 54°32' E 018°31'0 0.0
2014-Oct-19 01:33N 54°32' E 018°31'0 0.0
2014-Oct-19 00:33N 54°32' E 018°31'0 0.0
2014-Oct-18 23:33N 54°32' E 018°31'0 0.0
2014-Oct-18 22:33N 54°32' E 018°31'0 0.0
2014-Oct-18 21:33N 54°32' E 018°31'0 0.0
2014-Oct-18 20:33N 54°32' E 018°31'6 6.3
2014-Oct-18 19:33N 54°32' E 018°42'1514.8
2014-Oct-18 18:33N 54°44' E 018°58'1616.5
2014-Oct-18 17:33N 54°59' E 019°07'1716.5
2014-Oct-18 16:33N 55°15' E 019°16'28916.1
2014-Oct-17 22:34N 59°35' E 023°12'1716.9
2014-Oct-17 21:33N 59°40' E 023°44'2017.2
2014-Oct-17 20:25N 59°47' E 024°21'3216.6
2014-Oct-17 18:29N 60°06' E 025°11'7 6.3
2014-Oct-17 17:26N 60°13' E 025°12'0 0.0
2014-Oct-17 16:32N 60°13' E 025°12'0 0.0
2014-Oct-17 15:32N 60°13' E 025°12'0 0.0
2014-Oct-17 14:26N 60°13' E 025°12'0 0.0
2014-Oct-17 13:32N 60°13' E 025°12'0 0.0
2014-Oct-17 12:14N 60°13' E 025°12'0 0.0
2014-Oct-17 08:32N 60°13' E 025°12'0 0.0
2014-Oct-17 07:20N 60°13' E 025°12'0 0.0
2014-Oct-17 06:32N 60°13' E 025°12'4 4.3
2014-Oct-17 05:33N 60°09' E 025°12'4915.4
2014-Oct-17 02:24N 59°39' E 023°56'1416.7
2014-Oct-17 01:34N 59°34' E 023°30'29516.1
2014-Oct-16 07:14N 55°12' E 019°17'1117.0
2014-Oct-16 06:34N 55°01' E 019°10'1717.1
2014-Oct-16 05:34N 54°45' E 019°01'1616.0
2014-Oct-16 04:34N 54°32' E 018°46'8 8.3
2014-Oct-16 03:33N 54°32' E 018°31'0 0.0
2014-Oct-16 02:33N 54°32' E 018°31'0 0.0
2014-Oct-16 01:33N 54°32' E 018°31'0 0.0
2014-Oct-16 00:30N 54°32' E 018°31'0 0.0
2014-Oct-15 23:33N 54°32' E 018°31'0 0.0
2014-Oct-15 22:33N 54°32' E 018°31'0 0.0
2014-Oct-15 21:33N 54°32' E 018°31'0 0.0
2014-Oct-15 20:33N 54°32' E 018°31'6 6.3
2014-Oct-15 19:33N 54°32' E 018°42'1515.0
2014-Oct-15 18:33N 54°44' E 018°58'1716.8
2014-Oct-15 17:33N 55°00' E 019°07'30716.2
2014-Oct-14 22:32N 59°36' E 023°17'1816.9
2014-Oct-14 21:30N 59°42' E 023°50'1717.2
2014-Oct-14 20:31N 59°47' E 024°22'60 6.0
2014-Oct-14 10:32N 60°00' E 026°19'2016.9
2014-Oct-14 09:21N 59°60' E 026°59'2 0.1
2014-Oct-13 15:16N 59°58' E 027°00'1217.0
2014-Oct-13 14:33N 59°59' E 026°36'60 5.5
2014-Oct-13 03:33N 59°46' E 024°39'2116.7
2014-Oct-13 02:18N 59°39' E 023°59'1516.7
2014-Oct-13 01:25N 59°35' E 023°32'29516.5
2014-Oct-12 07:33N 55°13' E 019°18'1717.4
2014-Oct-12 06:33N 54°57' E 019°08'1817.7
2014-Oct-12 05:33N 54°40' E 018°58'1514.8
2014-Oct-12 04:34N 54°32' E 018°36'3 2.7
2014-Oct-12 03:31N 54°32' E 018°31'0 0.0
2014-Oct-12 02:31N 54°32' E 018°31'0 0.0
2014-Oct-12 01:31N 54°32' E 018°31'0 0.0
2014-Oct-12 00:31N 54°32' E 018°31'0 0.0
2014-Oct-11 23:31N 54°32' E 018°31'0 0.0
2014-Oct-11 22:31N 54°32' E 018°31'0 0.0
2014-Oct-11 21:31N 54°32' E 018°31'0 0.0
2014-Oct-11 20:33N 54°32' E 018°31'6 6.4
2014-Oct-11 19:33N 54°32' E 018°42'1514.6
2014-Oct-11 18:33N 54°44' E 018°58'1615.7
2014-Oct-11 17:33N 54°59' E 019°07'1615.8
2014-Oct-11 16:33N 55°14' E 019°15'  

Dump ship's entire track history